createdAt,value
2019-04-11T00:00:51.996Z,1019.94
2019-04-11T00:01:53.026Z,1019.92
2019-04-11T00:02:51.136Z,1019.96
2019-04-11T00:03:51.444Z,1020.00
2019-04-11T00:04:50.715Z,1019.97
2019-04-11T00:05:50.836Z,1020.05
2019-04-11T00:06:51.903Z,1020.06
2019-04-11T00:07:50.689Z,1020.03
2019-04-11T00:08:50.701Z,1020.04
2019-04-11T00:09:51.229Z,1020.05
2019-04-11T00:10:50.665Z,1020.06
2019-04-11T00:11:50.636Z,1020.04
2019-04-11T00:12:50.636Z,1020.04
2019-04-11T00:13:51.547Z,1020.07
2019-04-11T00:14:51.771Z,1020.05
2019-04-11T00:15:50.899Z,1020.06
2019-04-11T00:16:50.590Z,1020.07
2019-04-11T00:17:50.576Z,1020.04
2019-04-11T00:18:51.394Z,1020.04
2019-04-11T00:19:51.573Z,1020.04
2019-04-11T00:20:50.674Z,1020.07
2019-04-11T00:21:50.528Z,1020.08
2019-04-11T00:22:51.532Z,1020.07
2019-04-11T00:23:50.525Z,1020.08
2019-04-11T00:24:51.267Z,1020.09
2019-04-11T00:25:51.454Z,1020.06
2019-04-11T00:26:50.699Z,1020.10
2019-04-11T00:27:51.008Z,1020.11
2019-04-11T00:28:50.454Z,1020.11
2019-04-11T00:29:51.435Z,1020.08
2019-04-11T00:30:50.554Z,1020.13
2019-04-11T00:31:50.434Z,1020.11
2019-04-11T00:32:50.438Z,1020.14
2019-04-11T00:33:50.829Z,1020.14
2019-04-11T00:34:51.163Z,1020.17
2019-04-11T00:35:50.420Z,1020.17
2019-04-11T00:36:50.553Z,1020.13
2019-04-11T00:37:51.400Z,1020.18
2019-04-11T00:38:50.371Z,1020.20
2019-04-11T00:39:50.355Z,1020.19
2019-04-11T00:40:51.246Z,1020.24
2019-04-11T00:41:50.340Z,1020.24
2019-04-11T00:42:50.544Z,1020.23
2019-04-11T00:43:50.519Z,1020.23
2019-04-11T00:44:51.384Z,1020.23
2019-04-11T00:45:50.305Z,1020.22
2019-04-11T00:46:50.919Z,1020.25
2019-04-11T00:47:50.254Z,1020.23
2019-04-11T00:48:51.508Z,1020.22
2019-04-11T00:49:50.505Z,1020.20
2019-04-11T00:50:50.236Z,1020.25
2019-04-11T00:51:50.231Z,1020.22
2019-04-11T00:52:50.247Z,1020.24
2019-04-11T00:53:50.214Z,1020.29
2019-04-11T00:54:51.139Z,1020.24
2019-04-11T00:55:50.180Z,1020.27
2019-04-11T00:56:50.613Z,1020.25
2019-04-11T00:57:50.165Z,1020.29
2019-04-11T00:58:50.175Z,1020.27
2019-04-11T00:59:50.915Z,1020.26
2019-04-11T01:00:51.064Z,1020.32
2019-04-11T01:01:51.441Z,1020.30
2019-04-11T01:02:50.112Z,1020.34
2019-04-11T01:03:50.089Z,1020.33
2019-04-11T01:04:50.862Z,1020.27
2019-04-11T01:05:50.068Z,1020.34
2019-04-11T01:06:50.205Z,1020.30
2019-04-11T01:07:51.067Z,1020.35
2019-04-11T01:08:50.036Z,1020.33
2019-04-11T01:09:50.683Z,1020.37
2019-04-11T01:10:50.028Z,1020.39
2019-04-11T01:11:50.112Z,1020.39
2019-04-11T01:12:51.205Z,1020.43
2019-04-11T01:13:53.508Z,1020.38
2019-04-11T01:14:51.271Z,1020.44
2019-04-11T01:15:49.971Z,1020.41
2019-04-11T01:16:50.673Z,1020.43
2019-04-11T01:17:49.951Z,1020.43
2019-04-11T01:18:50.021Z,1020.43
2019-04-11T01:19:51.069Z,1020.39
2019-04-11T01:20:49.930Z,1020.39
2019-04-11T01:21:50.930Z,1020.40
2019-04-11T01:22:50.799Z,1020.43
2019-04-11T01:23:49.885Z,1020.44
2019-04-11T01:24:50.271Z,1020.43
2019-04-11T01:25:49.860Z,1020.43
2019-04-11T01:26:49.860Z,1020.46
2019-04-11T01:27:50.046Z,1020.47
2019-04-11T01:28:49.820Z,1020.47
2019-04-11T01:29:49.811Z,1020.47
2019-04-11T01:30:49.804Z,1020.46
2019-04-11T01:31:49.838Z,1020.50
2019-04-11T01:32:50.650Z,1020.44
2019-04-11T01:33:49.782Z,1020.51
2019-04-11T01:34:50.860Z,1020.49
2019-04-11T01:35:49.947Z,1020.48
2019-04-11T01:36:49.742Z,1020.55
2019-04-11T01:37:50.242Z,1020.56
2019-04-11T01:38:49.723Z,1020.54
2019-04-11T01:39:49.743Z,1020.57
2019-04-11T01:40:49.852Z,1020.55
2019-04-11T01:41:49.679Z,1020.55
2019-04-11T01:42:49.680Z,1020.56
2019-04-11T01:43:57.307Z,1020.58
2019-04-11T01:44:50.658Z,1020.56
2019-04-11T01:45:49.727Z,1020.59
2019-04-11T01:46:50.628Z,1020.59
2019-04-11T01:47:49.681Z,1020.59
2019-04-11T01:48:50.073Z,1020.56
2019-04-11T01:49:49.614Z,1020.63
2019-04-11T01:50:50.768Z,1020.63
2019-04-11T01:51:49.813Z,1020.63
2019-04-11T01:52:50.750Z,1020.61
2019-04-11T01:53:49.557Z,1020.62
2019-04-11T01:54:50.068Z,1020.62
2019-04-11T01:55:50.470Z,1020.62
2019-04-11T01:56:49.581Z,1020.62
2019-04-11T01:57:49.884Z,1020.62
2019-04-11T01:58:49.505Z,1020.63
2019-04-11T01:59:49.516Z,1020.63
2019-04-11T02:00:50.830Z,1020.68
2019-04-11T02:01:49.496Z,1020.62
2019-04-11T02:02:50.518Z,1020.67
2019-04-11T02:03:49.770Z,1020.69
2019-04-11T02:04:49.443Z,1020.70
2019-04-11T02:05:49.552Z,1020.66
2019-04-11T02:06:49.967Z,1020.70
2019-04-11T02:07:49.423Z,1020.71
2019-04-11T02:08:49.407Z,1020.72
2019-04-11T02:09:50.428Z,1020.67
2019-04-11T02:10:49.368Z,1020.71
2019-04-11T02:11:49.963Z,1020.71
2019-04-11T02:12:49.376Z,1020.72
2019-04-11T02:13:50.339Z,1020.71
2019-04-11T02:14:50.121Z,1020.72
2019-04-11T02:15:49.445Z,1020.68
2019-04-11T02:16:50.641Z,1020.74
2019-04-11T02:17:49.299Z,1020.73
2019-04-11T02:18:49.856Z,1020.72
2019-04-11T02:19:50.274Z,1020.74
2019-04-11T02:20:49.340Z,1020.71
2019-04-11T02:21:49.648Z,1020.72
2019-04-11T02:22:49.256Z,1020.70
2019-04-11T02:23:49.237Z,1020.75
2019-04-11T02:24:50.158Z,1020.76
2019-04-11T02:25:49.222Z,1020.73
2019-04-11T02:26:50.314Z,1020.74
2019-04-11T02:27:50.295Z,1020.76
2019-04-11T02:28:49.189Z,1020.80
2019-04-11T02:29:49.193Z,1020.79
2019-04-11T02:30:51.019Z,1020.76
2019-04-11T02:31:50.637Z,1020.78
2019-04-11T02:32:50.902Z,1020.83
2019-04-11T02:33:50.832Z,1020.79
2019-04-11T02:34:50.684Z,1020.85
2019-04-11T02:35:49.547Z,1020.86
2019-04-11T02:36:49.195Z,1020.85
2019-04-11T02:37:51.758Z,1020.85
2019-04-11T02:38:54.019Z,1020.88
2019-04-11T02:39:51.591Z,1020.86
2019-04-11T02:40:49.963Z,1020.91
2019-04-11T02:41:50.628Z,1020.88
2019-04-11T02:42:49.811Z,1020.91
2019-04-11T02:43:50.993Z,1020.96
2019-04-11T02:45:06.384Z,1020.93
2019-04-11T02:45:58.107Z,1020.99
2019-04-11T02:46:58.112Z,1020.99
2019-04-11T02:47:51.731Z,1021.02
2019-04-11T02:48:49.808Z,1020.99
2019-04-11T02:49:49.588Z,1021.01
2019-04-11T02:50:50.356Z,1021.06
2019-04-11T02:51:49.524Z,1021.03
2019-04-11T02:52:49.720Z,1021.04
2019-04-11T02:53:49.558Z,1020.99
2019-04-11T02:54:49.359Z,1021.05
2019-04-11T02:55:49.711Z,1021.04
2019-04-11T02:56:51.048Z,1021.03
2019-04-11T02:57:50.173Z,1021.03
2019-04-11T02:58:50.206Z,1020.99
2019-04-11T02:59:49.186Z,1021.04
2019-04-11T03:00:50.385Z,1021.03
2019-04-11T03:01:50.748Z,1021.08
2019-04-11T03:02:50.863Z,1021.06
2019-04-11T03:03:49.836Z,1021.05
2019-04-11T03:04:48.804Z,1021.10
2019-04-11T03:05:48.791Z,1021.07
2019-04-11T03:06:49.804Z,1021.10
2019-04-11T03:07:49.830Z,1021.10
2019-04-11T03:08:49.076Z,1021.08
2019-04-11T03:09:49.119Z,1021.09
2019-04-11T03:10:49.208Z,1021.07
2019-04-11T03:11:49.369Z,1021.06
2019-04-11T03:12:48.711Z,1021.07
2019-04-11T03:13:50.334Z,1021.07
2019-04-11T03:15:05.316Z,1021.03
2019-04-11T03:16:05.644Z,1021.05
2019-04-11T03:16:59.996Z,1021.03
2019-04-11T03:17:54.892Z,1021.06
2019-04-11T03:19:08.655Z,1021.06
2019-04-11T03:20:02.724Z,1021.08
2019-04-11T03:20:56.768Z,1021.08
2019-04-11T03:21:50.156Z,1021.11
2019-04-11T03:22:56.542Z,1021.12
2019-04-11T03:23:51.261Z,1021.13
2019-04-11T03:24:49.153Z,1021.13
2019-04-11T03:25:49.213Z,1021.16
2019-04-11T03:26:49.718Z,1021.10
2019-04-11T03:27:49.467Z,1021.13
2019-04-11T03:28:50.268Z,1021.19
2019-04-11T03:29:51.512Z,1021.09
2019-04-11T03:31:18.002Z,1021.12
2019-04-11T03:32:33.571Z,1021.11
2019-04-11T03:33:43.662Z,1021.09
2019-04-11T03:35:38.543Z,1021.09
2019-04-11T03:37:18.985Z,1021.15
2019-04-11T03:38:14.683Z,1021.13
2019-04-11T03:39:11.642Z,1021.11
2019-04-11T03:40:06.075Z,1021.14
2019-04-11T03:41:05.608Z,1021.16
2019-04-11T03:42:05.873Z,1021.13
2019-04-11T03:43:01.263Z,1021.17
2019-04-11T03:43:59.194Z,1021.16
2019-04-11T03:45:11.293Z,1021.15
2019-04-11T03:46:11.938Z,1021.19
2019-04-11T03:47:10.117Z,1021.17
2019-04-11T03:48:08.979Z,1021.17
2019-04-11T03:49:00.112Z,1021.21
2019-04-11T03:49:53.163Z,1021.22
2019-04-11T03:50:52.484Z,1021.23
2019-04-11T03:51:48.330Z,1021.23
2019-04-11T03:52:49.543Z,1021.26
2019-04-11T03:53:49.034Z,1021.30
2019-04-11T03:54:49.548Z,1021.27
2019-04-11T03:55:49.423Z,1021.25
2019-04-11T03:56:49.223Z,1021.29
2019-04-11T03:57:49.186Z,1021.28
2019-04-11T03:58:50.255Z,1021.25
2019-04-11T03:59:48.488Z,1021.25
2019-04-11T04:00:50.784Z,1021.27
2019-04-11T04:01:48.687Z,1021.25
2019-04-11T04:02:48.875Z,1021.28
2019-04-11T04:03:49.127Z,1021.26
2019-04-11T04:04:49.385Z,1021.32
2019-04-11T04:05:48.643Z,1021.29
2019-04-11T04:06:49.803Z,1021.27
2019-04-11T04:07:48.899Z,1021.27
2019-04-11T04:08:48.748Z,1021.32
2019-04-11T04:09:49.029Z,1021.25
2019-04-11T04:10:48.109Z,1021.32
2019-04-11T04:11:49.346Z,1021.28
2019-04-11T04:12:48.172Z,1021.34
2019-04-11T04:13:49.720Z,1021.33
2019-04-11T04:14:49.527Z,1021.31
2019-04-11T04:15:59.983Z,1021.44
2019-04-11T04:16:51.035Z,1021.42
2019-04-11T04:17:49.628Z,1021.42
2019-04-11T04:18:48.391Z,1021.46
2019-04-11T04:19:49.760Z,1021.47
2019-04-11T04:20:48.916Z,1021.48
2019-04-11T04:21:49.047Z,1021.51
2019-04-11T04:22:49.758Z,1021.45
2019-04-11T04:23:49.711Z,1021.50
2019-04-11T04:24:49.773Z,1021.51
2019-04-11T04:25:49.252Z,1021.49
2019-04-11T04:26:48.479Z,1021.52
2019-04-11T04:27:49.129Z,1021.57
2019-04-11T04:28:48.234Z,1021.57
2019-04-11T04:29:51.840Z,1021.54
2019-04-11T04:30:49.371Z,1021.58
2019-04-11T04:31:48.982Z,1021.58
2019-04-11T04:32:49.308Z,1021.58
2019-04-11T04:33:48.156Z,1021.63
2019-04-11T04:34:49.088Z,1021.61
2019-04-11T04:35:49.467Z,1021.60
2019-04-11T04:36:49.589Z,1021.64
2019-04-11T04:37:49.589Z,1021.64
2019-04-11T04:38:48.895Z,1021.62
2019-04-11T04:39:48.055Z,1021.62
2019-04-11T04:41:00.256Z,1021.66
2019-04-11T04:41:58.251Z,1021.64
2019-04-11T04:42:50.995Z,1021.67
2019-04-11T04:43:50.476Z,1021.70
2019-04-11T04:44:49.028Z,1021.65
2019-04-11T04:46:07.467Z,1021.68
2019-04-11T04:47:00.279Z,1021.69
2019-04-11T04:47:54.856Z,1021.71
2019-04-11T04:48:49.981Z,1021.70
2019-04-11T04:49:48.193Z,1021.76
2019-04-11T04:50:48.925Z,1021.79
2019-04-11T04:51:47.950Z,1021.78
2019-04-11T04:52:48.973Z,1021.76
2019-04-11T04:53:48.135Z,1021.82
2019-04-11T04:54:48.476Z,1021.79
2019-04-11T04:55:48.026Z,1021.83
2019-04-11T04:56:47.612Z,1021.80
2019-04-11T04:57:48.706Z,1021.80
2019-04-11T04:58:48.579Z,1021.79
2019-04-11T04:59:48.963Z,1021.83
2019-04-11T05:00:48.405Z,1021.85
2019-04-11T05:01:48.250Z,1021.78
2019-04-11T05:02:47.988Z,1021.85
2019-04-11T05:03:48.791Z,1021.82
2019-04-11T05:04:47.915Z,1021.80
2019-04-11T05:05:48.479Z,1021.85
2019-04-11T05:06:48.981Z,1021.84
2019-04-11T05:07:47.611Z,1021.87
2019-04-11T05:08:47.471Z,1021.85
2019-04-11T05:09:48.061Z,1021.89
2019-04-11T05:10:49.047Z,1021.88
2019-04-11T05:11:48.747Z,1021.86
2019-04-11T05:12:47.482Z,1021.87
2019-04-11T05:13:50.428Z,1021.86
2019-04-11T05:14:47.825Z,1021.87
2019-04-11T05:15:47.390Z,1021.85
2019-04-11T05:16:48.210Z,1021.89
2019-04-11T05:17:47.389Z,1021.89
2019-04-11T05:18:48.376Z,1021.91
2019-04-11T05:19:47.356Z,1021.95
2019-04-11T05:20:48.274Z,1021.93
2019-04-11T05:21:47.832Z,1021.91
2019-04-11T05:22:47.327Z,1021.93
2019-04-11T05:23:48.048Z,1021.92
2019-04-11T05:24:47.546Z,1022.02
2019-04-11T05:25:47.292Z,1022.01
2019-04-11T05:26:48.135Z,1022.01
2019-04-11T05:27:47.539Z,1022.02
2019-04-11T05:28:47.251Z,1022.01
2019-04-11T05:29:47.269Z,1022.00
2019-04-11T05:30:47.256Z,1022.00
2019-04-11T05:31:47.228Z,1022.06
2019-04-11T05:32:47.301Z,1022.01
2019-04-11T05:33:47.590Z,1022.05
2019-04-11T05:34:47.191Z,1022.08
2019-04-11T05:35:48.005Z,1022.05
2019-04-11T05:36:47.278Z,1022.08
2019-04-11T05:37:47.192Z,1022.12
2019-04-11T05:38:47.135Z,1022.04
2019-04-11T05:39:48.181Z,1022.05
2019-04-11T05:40:48.235Z,1022.05
2019-04-11T05:41:48.454Z,1022.08
2019-04-11T05:42:50.980Z,1022.07
2019-04-11T05:43:48.081Z,1022.11
2019-04-11T05:44:48.273Z,1022.13
2019-04-11T05:45:48.530Z,1022.12
2019-04-11T05:46:55.829Z,1022.09
2019-04-11T05:47:50.863Z,1022.09
2019-04-11T05:48:48.033Z,1022.10
2019-04-11T05:49:47.078Z,1022.08
2019-04-11T05:50:50.475Z,1022.12
2019-04-11T05:51:47.595Z,1022.10
2019-04-11T05:52:47.017Z,1022.10
2019-04-11T05:53:49.941Z,1022.16
2019-04-11T05:54:49.087Z,1022.12
2019-04-11T05:55:47.556Z,1022.13
2019-04-11T05:56:53.038Z,1022.11
2019-04-11T05:57:47.963Z,1022.18
2019-04-11T05:58:47.713Z,1022.18
2019-04-11T05:59:49.937Z,1022.19
2019-04-11T06:00:48.911Z,1022.23
2019-04-11T06:01:46.885Z,1022.20
2019-04-11T06:02:46.885Z,1022.19
2019-04-11T06:03:49.194Z,1022.19
2019-04-11T06:04:50.112Z,1022.22
2019-04-11T06:05:47.849Z,1022.23
2019-04-11T06:06:46.843Z,1022.23
2019-04-11T06:07:48.972Z,1022.25
2019-04-11T06:08:48.151Z,1022.29
2019-04-11T06:09:46.807Z,1022.30
2019-04-11T06:10:46.806Z,1022.28
2019-04-11T06:11:50.357Z,1022.29
2019-04-11T06:12:47.775Z,1022.32
2019-04-11T06:13:46.878Z,1022.29
2019-04-11T06:14:47.190Z,1022.28
2019-04-11T06:15:47.210Z,1022.27
2019-04-11T06:16:50.903Z,1022.28
2019-04-11T06:17:48.202Z,1022.30
2019-04-11T06:18:46.698Z,1022.29
2019-04-11T06:19:47.920Z,1022.25
2019-04-11T06:20:47.216Z,1022.29
2019-04-11T06:21:46.669Z,1022.26
2019-04-11T06:22:47.664Z,1022.27
2019-04-11T06:23:47.774Z,1022.25
2019-04-11T06:24:46.656Z,1022.29
2019-04-11T06:25:47.181Z,1022.32
2019-04-11T06:26:47.060Z,1022.32
2019-04-11T06:27:47.402Z,1022.35
2019-04-11T06:28:47.330Z,1022.37
2019-04-11T06:29:47.324Z,1022.34
2019-04-11T06:30:46.589Z,1022.31
2019-04-11T06:31:47.510Z,1022.33
2019-04-11T06:32:47.801Z,1022.39
2019-04-11T06:33:46.988Z,1022.37
2019-04-11T06:34:46.988Z,1022.36
2019-04-11T06:35:46.541Z,1022.44
2019-04-11T06:36:48.098Z,1022.45
2019-04-11T06:37:46.708Z,1022.46
2019-04-11T06:38:47.130Z,1022.46
2019-04-11T06:39:47.351Z,1022.45
2019-04-11T06:40:46.469Z,1022.52
2019-04-11T06:41:46.588Z,1022.48
2019-04-11T06:42:47.580Z,1022.47
2019-04-11T06:43:46.431Z,1022.47
2019-04-11T06:44:46.429Z,1022.47
2019-04-11T06:45:46.414Z,1022.43
2019-04-11T06:46:53.838Z,1022.43
2019-04-11T06:47:47.482Z,1022.42
2019-04-11T06:48:47.673Z,1022.40
2019-04-11T06:49:46.745Z,1022.34
2019-04-11T06:50:47.174Z,1022.41
2019-04-11T06:51:46.390Z,1022.39
2019-04-11T06:52:46.353Z,1022.37
2019-04-11T06:53:46.331Z,1022.44
2019-04-11T06:54:47.396Z,1022.42
2019-04-11T06:55:46.802Z,1022.44
2019-04-11T06:56:47.479Z,1022.44
2019-04-11T06:57:46.269Z,1022.44
2019-04-11T06:58:46.277Z,1022.41
2019-04-11T06:59:46.254Z,1022.44
2019-04-11T07:00:47.442Z,1022.46
2019-04-11T07:01:47.498Z,1022.46
2019-04-11T07:02:46.609Z,1022.47
2019-04-11T07:03:46.928Z,1022.44
2019-04-11T07:04:46.394Z,1022.49
2019-04-11T07:05:46.857Z,1022.47
2019-04-11T07:06:46.184Z,1022.53
2019-04-11T07:07:46.215Z,1022.48
2019-04-11T07:08:46.920Z,1022.50
2019-04-11T07:09:47.026Z,1022.48
2019-04-11T07:10:46.752Z,1022.50
2019-04-11T07:11:46.138Z,1022.53
2019-04-11T07:12:47.130Z,1022.59
2019-04-11T07:13:46.103Z,1022.51
2019-04-11T07:14:46.128Z,1022.58
2019-04-11T07:15:46.454Z,1022.57
2019-04-11T07:16:46.830Z,1022.57
2019-04-11T07:17:46.063Z,1022.62
2019-04-11T07:18:46.477Z,1022.62
2019-04-11T07:19:46.067Z,1022.63
2019-04-11T07:20:46.033Z,1022.67
2019-04-11T07:21:46.199Z,1022.61
2019-04-11T07:22:46.643Z,1022.63
2019-04-11T07:23:47.042Z,1022.70
2019-04-11T07:24:46.008Z,1022.63
2019-04-11T07:25:47.127Z,1022.66
2019-04-11T07:26:45.970Z,1022.63
2019-04-11T07:27:45.961Z,1022.61
2019-04-11T07:28:45.943Z,1022.62
2019-04-11T07:29:46.469Z,1022.62
2019-04-11T07:30:45.951Z,1022.70
2019-04-11T07:31:46.226Z,1022.66
2019-04-11T07:32:47.609Z,1022.71
2019-04-11T07:33:46.001Z,1022.68
2019-04-11T07:34:45.919Z,1022.70
2019-04-11T07:35:47.644Z,1022.69
2019-04-11T07:36:46.207Z,1022.65
2019-04-11T07:37:47.498Z,1022.71
2019-04-11T07:38:48.707Z,1022.77
2019-04-11T07:39:47.185Z,1022.73
2019-04-11T07:40:45.840Z,1022.77
2019-04-11T07:41:45.911Z,1022.76
2019-04-11T07:42:46.840Z,1022.82
2019-04-11T07:43:45.791Z,1022.80
2019-04-11T07:44:45.792Z,1022.79
2019-04-11T07:45:47.025Z,1022.82
2019-04-11T07:46:45.752Z,1022.80
2019-04-11T07:47:46.139Z,1022.82
2019-04-11T07:48:46.795Z,1022.80
2019-04-11T07:49:45.751Z,1022.84
2019-04-11T07:50:46.532Z,1022.82
2019-04-11T07:51:45.720Z,1022.76
2019-04-11T07:52:46.862Z,1022.78
2019-04-11T07:53:45.972Z,1022.79
2019-04-11T07:54:45.732Z,1022.75
2019-04-11T07:55:46.612Z,1022.76
2019-04-11T07:56:46.362Z,1022.80
2019-04-11T07:57:46.796Z,1022.83
2019-04-11T07:58:45.808Z,1022.79
2019-04-11T07:59:46.735Z,1022.79
2019-04-11T08:00:49.017Z,1022.82
2019-04-11T08:01:46.946Z,1022.79
2019-04-11T08:02:45.736Z,1022.77
2019-04-11T08:03:46.870Z,1022.84
2019-04-11T08:04:45.567Z,1022.85
2019-04-11T08:05:46.604Z,1022.84
2019-04-11T08:06:45.699Z,1022.85
2019-04-11T08:07:46.685Z,1022.81
2019-04-11T08:08:45.523Z,1022.82
2019-04-11T08:09:45.520Z,1022.80
2019-04-11T08:10:45.775Z,1022.79
2019-04-11T08:11:45.489Z,1022.82
2019-04-11T08:12:45.809Z,1022.82
2019-04-11T08:13:45.490Z,1022.82
2019-04-11T08:14:45.617Z,1022.79
2019-04-11T08:15:46.051Z,1022.83
2019-04-11T08:16:45.438Z,1022.83
2019-04-11T08:17:46.007Z,1022.86
2019-04-11T08:18:45.452Z,1022.85
2019-04-11T08:19:45.418Z,1022.80
2019-04-11T08:20:45.694Z,1022.80
2019-04-11T08:21:46.135Z,1022.80
2019-04-11T08:22:45.597Z,1022.78
2019-04-11T08:23:45.732Z,1022.76
2019-04-11T08:24:45.389Z,1022.77
2019-04-11T08:25:45.344Z,1022.73
2019-04-11T08:26:46.374Z,1022.78
2019-04-11T08:27:54.897Z,1022.78
2019-04-11T08:28:47.698Z,1022.75
2019-04-11T08:29:48.851Z,1022.81
2019-04-11T08:30:45.309Z,1022.76
2019-04-11T08:31:46.441Z,1022.82
2019-04-11T08:32:46.432Z,1022.83
2019-04-11T08:33:45.258Z,1022.84
2019-04-11T08:34:45.869Z,1022.76
2019-04-11T08:35:45.257Z,1022.77
2019-04-11T08:36:47.202Z,1022.81
2019-04-11T08:37:45.531Z,1022.74
2019-04-11T08:38:45.200Z,1022.77
2019-04-11T08:39:45.202Z,1022.73
2019-04-11T08:40:45.285Z,1022.70
2019-04-11T08:41:45.168Z,1022.73
2019-04-11T08:42:45.165Z,1022.71
2019-04-11T08:43:45.541Z,1022.72
2019-04-11T08:44:45.157Z,1022.69
2019-04-11T08:45:45.124Z,1022.69
2019-04-11T08:46:45.133Z,1022.77
2019-04-11T08:47:51.269Z,1022.78
2019-04-11T08:48:46.102Z,1022.79
2019-04-11T08:49:45.979Z,1022.82
2019-04-11T08:50:45.089Z,1022.77
2019-04-11T08:51:45.271Z,1022.77
2019-04-11T08:52:45.064Z,1022.76
2019-04-11T08:53:45.045Z,1022.80
2019-04-11T08:54:45.927Z,1022.80
2019-04-11T08:55:51.991Z,1022.79
2019-04-11T08:56:47.302Z,1022.81
2019-04-11T08:57:44.997Z,1022.80
2019-04-11T08:58:44.994Z,1022.82
2019-04-11T08:59:46.109Z,1022.78
2019-04-11T09:00:44.965Z,1022.82
2019-04-11T09:01:46.004Z,1022.83
2019-04-11T09:02:45.083Z,1022.80
2019-04-11T09:03:56.626Z,1022.77
2019-04-11T09:04:46.296Z,1022.77
2019-04-11T09:05:44.922Z,1022.83
2019-04-11T09:06:45.110Z,1022.81
2019-04-11T09:07:45.739Z,1022.85
2019-04-11T09:08:44.895Z,1022.86
2019-04-11T09:09:45.550Z,1022.86
2019-04-11T09:10:44.864Z,1022.90
2019-04-11T09:11:44.938Z,1022.90
2019-04-11T09:12:44.901Z,1022.89
2019-04-11T09:13:44.834Z,1022.85
2019-04-11T09:14:44.835Z,1022.85
2019-04-11T09:15:45.390Z,1022.81
2019-04-11T09:16:45.812Z,1022.73
2019-04-11T09:17:57.496Z,1022.73
2019-04-11T09:18:46.117Z,1022.75
2019-04-11T09:19:45.269Z,1022.72
2019-04-11T09:20:45.573Z,1022.75
2019-04-11T09:21:44.743Z,1022.81
2019-04-11T09:22:45.013Z,1022.81
2019-04-11T09:23:44.776Z,1022.79
2019-04-11T09:24:44.713Z,1022.80
2019-04-11T09:25:45.734Z,1022.77
2019-04-11T09:26:44.682Z,1022.80
2019-04-11T09:27:44.825Z,1022.78
2019-04-11T09:28:45.832Z,1022.75
2019-04-11T09:29:44.678Z,1022.75
2019-04-11T09:30:45.190Z,1022.80
2019-04-11T09:31:45.685Z,1022.80
2019-04-11T09:32:44.627Z,1022.76
2019-04-11T09:33:44.907Z,1022.76
2019-04-11T09:34:44.626Z,1022.74
2019-04-11T09:35:44.589Z,1022.76
2019-04-11T09:36:45.162Z,1022.77
2019-04-11T09:37:44.675Z,1022.78
2019-04-11T09:38:44.564Z,1022.75
2019-04-11T09:39:45.565Z,1022.85
2019-04-11T09:40:44.692Z,1022.78
2019-04-11T09:41:44.833Z,1022.78
2019-04-11T09:42:45.004Z,1022.80
2019-04-11T09:43:44.516Z,1022.77
2019-04-11T09:44:44.796Z,1022.75
2019-04-11T09:45:44.522Z,1022.77
2019-04-11T09:46:44.469Z,1022.78
2019-04-11T09:47:45.551Z,1022.80
2019-04-11T09:48:44.552Z,1022.78
2019-04-11T09:49:45.039Z,1022.73
2019-04-11T09:50:44.757Z,1022.71
2019-04-11T09:51:44.436Z,1022.76
2019-04-11T09:52:45.303Z,1022.71
2019-04-11T09:53:45.072Z,1022.74
2019-04-11T09:54:44.383Z,1022.77
2019-04-11T09:55:44.360Z,1022.76
2019-04-11T09:56:45.102Z,1022.71
2019-04-11T09:57:44.363Z,1022.67
2019-04-11T09:58:44.327Z,1022.71
2019-04-11T09:59:45.474Z,1022.71
2019-04-11T10:00:45.215Z,1022.66
2019-04-11T10:01:45.185Z,1022.73
2019-04-11T10:02:44.292Z,1022.73
2019-04-11T10:03:45.099Z,1022.72
2019-04-11T10:04:44.270Z,1022.70
2019-04-11T10:05:44.821Z,1022.74
2019-04-11T10:06:44.572Z,1022.78
2019-04-11T10:07:44.288Z,1022.79
2019-04-11T10:08:44.221Z,1022.74
2019-04-11T10:09:44.275Z,1022.82
2019-04-11T10:10:46.207Z,1022.80
2019-04-11T10:11:44.199Z,1022.78
2019-04-11T10:12:44.648Z,1022.78
2019-04-11T10:13:44.957Z,1022.78
2019-04-11T10:14:44.175Z,1022.80
2019-04-11T10:15:45.184Z,1022.74
2019-04-11T10:16:44.363Z,1022.76
2019-04-11T10:17:44.163Z,1022.82
2019-04-11T10:18:44.388Z,1022.81
2019-04-11T10:19:44.414Z,1022.83
2019-04-11T10:20:44.627Z,1022.79
2019-04-11T10:21:44.080Z,1022.81
2019-04-11T10:22:44.109Z,1022.80
2019-04-11T10:23:45.133Z,1022.81
2019-04-11T10:24:44.050Z,1022.85
2019-04-11T10:25:45.422Z,1022.83
2019-04-11T10:26:44.494Z,1022.80
2019-04-11T10:27:44.767Z,1022.81
2019-04-11T10:28:44.036Z,1022.80
2019-04-11T10:29:44.150Z,1022.84
2019-04-11T10:30:44.203Z,1022.74
2019-04-11T10:31:44.358Z,1022.77
2019-04-11T10:32:43.959Z,1022.82
2019-04-11T10:33:44.887Z,1022.84
2019-04-11T10:34:43.970Z,1022.85
2019-04-11T10:35:43.940Z,1022.86
2019-04-11T10:36:43.920Z,1022.88
2019-04-11T10:37:44.267Z,1022.90
2019-04-11T10:38:44.734Z,1022.86
2019-04-11T10:39:43.926Z,1022.90
2019-04-11T10:40:44.171Z,1022.90
2019-04-11T10:41:44.166Z,1022.87
2019-04-11T10:42:44.463Z,1022.84
2019-04-11T10:43:44.698Z,1022.86
2019-04-11T10:44:43.862Z,1022.84
2019-04-11T10:45:44.837Z,1022.80
2019-04-11T10:46:43.950Z,1022.81
2019-04-11T10:47:44.952Z,1022.87
2019-04-11T10:48:45.313Z,1022.82
2019-04-11T10:49:44.182Z,1022.80
2019-04-11T10:50:44.478Z,1022.82
2019-04-11T10:51:43.758Z,1022.85
2019-04-11T10:52:44.646Z,1022.87
2019-04-11T10:53:43.843Z,1022.88
2019-04-11T10:54:44.981Z,1022.86
2019-04-11T10:55:44.119Z,1022.81
2019-04-11T10:56:43.719Z,1022.81
2019-04-11T10:57:44.603Z,1022.78
2019-04-11T10:58:44.775Z,1022.88
2019-04-11T10:59:44.819Z,1022.87
2019-04-11T11:00:43.714Z,1022.85
2019-04-11T11:01:44.352Z,1022.81
2019-04-11T11:02:43.642Z,1022.79
2019-04-11T11:03:43.637Z,1022.81
2019-04-11T11:04:43.611Z,1022.81
2019-04-11T11:05:43.602Z,1022.79
2019-04-11T11:06:44.955Z,1022.77
2019-04-11T11:07:44.593Z,1022.80
2019-04-11T11:08:43.800Z,1022.79
2019-04-11T11:09:44.325Z,1022.77
2019-04-11T11:10:43.879Z,1022.78
2019-04-11T11:11:44.205Z,1022.80
2019-04-11T11:12:43.615Z,1022.85
2019-04-11T11:13:43.521Z,1022.83
2019-04-11T11:14:43.513Z,1022.77
2019-04-11T11:15:44.013Z,1022.77
2019-04-11T11:16:45.465Z,1022.74
2019-04-11T11:18:11.459Z,1022.73
2019-04-11T11:19:15.578Z,1022.77
2019-04-11T11:19:57.452Z,1022.75
2019-04-11T11:20:50.107Z,1022.73
2019-04-11T11:21:45.106Z,1022.85
2019-04-11T11:22:44.438Z,1022.85
2019-04-11T11:23:43.417Z,1022.87
2019-04-11T11:24:44.209Z,1022.89
2019-04-11T11:25:48.142Z,1022.89
2019-04-11T11:26:44.383Z,1022.84
2019-04-11T11:27:43.724Z,1022.84
2019-04-11T11:28:43.354Z,1022.87
2019-04-11T11:29:43.348Z,1022.86
2019-04-11T11:30:43.331Z,1022.88
2019-04-11T11:31:44.816Z,1022.82
2019-04-11T11:32:43.357Z,1022.90
2019-04-11T11:33:44.616Z,1022.97
2019-04-11T11:34:44.437Z,1022.94
2019-04-11T11:35:43.540Z,1022.94
2019-04-11T11:36:43.776Z,1022.92
2019-04-11T11:37:43.276Z,1022.94
2019-04-11T11:38:43.995Z,1022.97
2019-04-11T11:39:43.691Z,1022.97
2019-04-11T11:40:44.729Z,1022.99
2019-04-11T11:41:43.213Z,1023.00
2019-04-11T11:42:44.122Z,1022.98
2019-04-11T11:43:43.354Z,1022.98
2019-04-11T11:44:43.208Z,1023.01
2019-04-11T11:45:46.858Z,1023.11
2019-04-11T11:46:44.641Z,1023.13
2019-04-11T11:47:43.273Z,1023.10
2019-04-11T11:48:46.345Z,1023.10
2019-04-11T11:49:53.401Z,1023.12
2019-04-11T11:50:44.713Z,1023.07
2019-04-11T11:51:43.628Z,1023.04
2019-04-11T11:52:43.985Z,1023.10
2019-04-11T11:53:43.090Z,1023.11
2019-04-11T11:54:43.976Z,1023.16
2019-04-11T11:55:43.226Z,1023.13
2019-04-11T11:56:44.361Z,1023.16
2019-04-11T11:57:43.058Z,1023.14
2019-04-11T11:58:45.157Z,1023.15
2019-04-11T11:59:43.023Z,1023.12
2019-04-11T12:00:43.803Z,1023.14
2019-04-11T12:01:46.436Z,1023.09
2019-04-11T12:02:44.357Z,1023.09
2019-04-11T12:03:42.987Z,1023.12
2019-04-11T12:04:44.250Z,1023.10
2019-04-11T12:05:47.112Z,1023.14
2019-04-11T12:06:44.025Z,1023.19
2019-04-11T12:07:43.143Z,1023.14